sensor_id;sensor_type;location;lat;lon;timestamp;pressure;altitude;pressure_sealevel;temperature;humidity
51460;BME280;37534;39.772;2.718;2022-08-03T00:02:15;101155.38;;;25.47;90.24
51460;BME280;37534;39.772;2.718;2022-08-03T00:04:40;101188.09;;;25.67;90.81
51460;BME280;37534;39.772;2.718;2022-08-03T00:07:06;101177.66;;;25.66;91.62
51460;BME280;37534;39.772;2.718;2022-08-03T00:09:31;101175.84;;;25.66;92.73
51460;BME280;37534;39.772;2.718;2022-08-03T00:11:57;101169.72;;;25.66;95.59
51460;BME280;37534;39.772;2.718;2022-08-03T00:14:22;101170.03;;;25.72;96.12
51460;BME280;37534;39.772;2.718;2022-08-03T00:16:48;101165.84;;;25.70;96.02
51460;BME280;37534;39.772;2.718;2022-08-03T00:19:13;101179.19;;;25.68;96.29
51460;BME280;37534;39.772;2.718;2022-08-03T00:21:39;101174.91;;;25.67;96.55
51460;BME280;37534;39.772;2.718;2022-08-03T00:24:05;101175.84;;;25.66;95.91
51460;BME280;37534;39.772;2.718;2022-08-03T00:26:30;101167.56;;;25.59;96.27
51460;BME280;37534;39.772;2.718;2022-08-03T00:28:56;101171.66;;;25.64;93.36
51460;BME280;37534;39.772;2.718;2022-08-03T00:31:21;101174.09;;;25.55;93.87
51460;BME280;37534;39.772;2.718;2022-08-03T00:33:47;101187.66;;;25.51;95.34
51460;BME280;37534;39.772;2.718;2022-08-03T00:36:13;101177.72;;;25.43;94.88
51460;BME280;37534;39.772;2.718;2022-08-03T00:38:38;101168.41;;;25.39;93.74
51460;BME280;37534;39.772;2.718;2022-08-03T00:41:04;101187.53;;;25.52;91.43
51460;BME280;37534;39.772;2.718;2022-08-03T00:43:29;101182.25;;;25.52;89.49
51460;BME280;37534;39.772;2.718;2022-08-03T00:45:55;101176.50;;;25.47;91.83
51460;BME280;37534;39.772;2.718;2022-08-03T00:48:21;101170.81;;;25.31;94.00
51460;BME280;37534;39.772;2.718;2022-08-03T00:50:47;101177.31;;;25.27;93.83
51460;BME280;37534;39.772;2.718;2022-08-03T00:53:13;101169.84;;;25.20;94.39
51460;BME280;37534;39.772;2.718;2022-08-03T00:55:42;101163.13;;;25.16;94.94
51460;BME280;37534;39.772;2.718;2022-08-03T00:58:09;101156.03;;;25.17;94.00
51460;BME280;37534;39.772;2.718;2022-08-03T01:00:37;101158.09;;;25.13;93.19
51460;BME280;37534;39.772;2.718;2022-08-03T01:03:05;101161.72;;;25.12;93.10
51460;BME280;37534;39.772;2.718;2022-08-03T01:05:43;101159.06;;;25.12;93.36
51460;BME280;37534;39.772;2.718;2022-08-03T01:08:45;101150.56;;;25.09;93.02
51460;BME280;37534;39.772;2.718;2022-08-03T01:11:48;101161.44;;;25.15;95.39
51460;BME280;37534;39.772;2.718;2022-08-03T01:14:26;101156.88;;;25.17;96.47
51460;BME280;37534;39.772;2.718;2022-08-03T01:20:02;101150.66;;;25.18;96.14
51460;BME280;37534;39.772;2.718;2022-08-03T01:23:05;101147.19;;;25.07;96.77
51460;BME280;37534;39.772;2.718;2022-08-03T01:31:57;101133.44;;;24.92;90.86
51460;BME280;37534;39.772;2.718;2022-08-03T01:34:28;101137.16;;;24.89;92.12
51460;BME280;37534;39.772;2.718;2022-08-03T01:36:56;101124.31;;;24.84;92.39
51460;BME280;37534;39.772;2.718;2022-08-03T01:39:24;101132.00;;;24.88;93.64
51460;BME280;37534;39.772;2.718;2022-08-03T01:42:00;101108.59;;;24.83;95.05
51460;BME280;37534;39.772;2.718;2022-08-03T01:44:34;101114.28;;;24.78;95.16
51460;BME280;37534;39.772;2.718;2022-08-03T01:47:01;101121.34;;;24.78;96.21
51460;BME280;37534;39.772;2.718;2022-08-03T01:49:29;101096.19;;;24.62;95.99
51460;BME280;37534;39.772;2.718;2022-08-03T01:51:56;101111.88;;;24.75;95.93
51460;BME280;37534;39.772;2.718;2022-08-03T01:54:24;101116.28;;;24.75;96.23
51460;BME280;37534;39.772;2.718;2022-08-03T01:56:51;101107.06;;;24.69;96.09
51460;BME280;37534;39.772;2.718;2022-08-03T01:59:19;101102.88;;;24.66;96.78
51460;BME280;37534;39.772;2.718;2022-08-03T02:01:47;101099.28;;;24.67;95.23
51460;BME280;37534;39.772;2.718;2022-08-03T02:04:16;101099.66;;;24.63;95.69
51460;BME280;37534;39.772;2.718;2022-08-03T02:06:44;101107.81;;;24.60;96.31
51460;BME280;37534;39.772;2.718;2022-08-03T02:09:12;101106.38;;;24.56;94.98
51460;BME280;37534;39.772;2.718;2022-08-03T02:11:39;101091.25;;;24.46;94.54
51460;BME280;37534;39.772;2.718;2022-08-03T02:14:07;101097.13;;;24.50;96.18
51460;BME280;37534;39.772;2.718;2022-08-03T02:16:33;101094.72;;;24.58;97.02
51460;BME280;37534;39.772;2.718;2022-08-03T02:19:02;101110.91;;;24.76;95.90
51460;BME280;37534;39.772;2.718;2022-08-03T02:21:31;101095.81;;;24.78;93.80
51460;BME280;37534;39.772;2.718;2022-08-03T02:23:58;101089.81;;;24.65;96.05
51460;BME280;37534;39.772;2.718;2022-08-03T02:26:28;101093.41;;;24.64;95.02
51460;BME280;37534;39.772;2.718;2022-08-03T02:28:55;101101.09;;;24.56;96.91
51460;BME280;37534;39.772;2.718;2022-08-03T02:31:24;101087.63;;;24.47;93.76
51460;BME280;37534;39.772;2.718;2022-08-03T02:33:53;101095.34;;;24.39;92.37
51460;BME280;37534;39.772;2.718;2022-08-03T02:36:23;101090.03;;;24.28;92.95
51460;BME280;37534;39.772;2.718;2022-08-03T02:38:53;101089.47;;;24.36;94.51
51460;BME280;37534;39.772;2.718;2022-08-03T02:41:27;101051.69;;;24.35;94.14
51460;BME280;37534;39.772;2.718;2022-08-03T02:43:55;101052.41;;;24.26;95.80
51460;BME280;37534;39.772;2.718;2022-08-03T02:46:25;101061.16;;;24.26;96.59
51460;BME280;37534;39.772;2.718;2022-08-03T02:48:53;101051.72;;;24.13;96.65
51460;BME280;37534;39.772;2.718;2022-08-03T02:51:21;101053.13;;;24.17;96.14
51460;BME280;37534;39.772;2.718;2022-08-03T02:53:48;101062.97;;;24.26;96.66
51460;BME280;37534;39.772;2.718;2022-08-03T02:56:15;101045.44;;;24.25;96.31
51460;BME280;37534;39.772;2.718;2022-08-03T02:58:42;101051.31;;;24.28;95.27
51460;BME280;37534;39.772;2.718;2022-08-03T03:01:10;101065.59;;;24.37;95.69
51460;BME280;37534;39.772;2.718;2022-08-03T03:03:37;101029.53;;;24.15;96.21
51460;BME280;37534;39.772;2.718;2022-08-03T03:06:03;101053.00;;;24.29;97.88
51460;BME280;37534;39.772;2.718;2022-08-03T03:08:29;101054.94;;;24.27;97.79
51460;BME280;37534;39.772;2.718;2022-08-03T03:10:57;101027.50;;;24.07;97.83
51460;BME280;37534;39.772;2.718;2022-08-03T03:13:25;101055.06;;;24.15;97.81
51460;BME280;37534;39.772;2.718;2022-08-03T03:15:51;101072.06;;;24.22;98.21
51460;BME280;37534;39.772;2.718;2022-08-03T03:18:20;101057.34;;;24.31;96.81
51460;BME280;37534;39.772;2.718;2022-08-03T03:20:46;101059.13;;;24.30;95.57
51460;BME280;37534;39.772;2.718;2022-08-03T03:23:12;101055.53;;;24.20;96.78
51460;BME280;37534;39.772;2.718;2022-08-03T03:25:39;101044.00;;;23.98;98.58
51460;BME280;37534;39.772;2.718;2022-08-03T03:28:05;101056.13;;;24.01;99.27
51460;BME280;37534;39.772;2.718;2022-08-03T03:30:30;101060.56;;;24.00;99.71
51460;BME280;37534;39.772;2.718;2022-08-03T03:32:57;101032.16;;;23.81;99.20
51460;BME280;37534;39.772;2.718;2022-08-03T03:35:23;101031.63;;;23.76;100.00
51460;BME280;37534;39.772;2.718;2022-08-03T03:37:49;101055.28;;;23.89;99.43
51460;BME280;37534;39.772;2.718;2022-08-03T03:40:16;101067.50;;;23.90;98.55
51460;BME280;37534;39.772;2.718;2022-08-03T03:42:41;101057.41;;;23.84;99.61
51460;BME280;37534;39.772;2.718;2022-08-03T03:45:08;101055.22;;;23.78;100.00
51460;BME280;37534;39.772;2.718;2022-08-03T03:47:34;101078.25;;;23.87;100.00
51460;BME280;37534;39.772;2.718;2022-08-03T03:50:04;101052.00;;;23.74;100.00
51460;BME280;37534;39.772;2.718;2022-08-03T03:52:31;101072.84;;;23.77;100.00
51460;BME280;37534;39.772;2.718;2022-08-03T03:54:57;101063.28;;;23.87;97.22
51460;BME280;37534;39.772;2.718;2022-08-03T03:57:22;101085.94;;;24.01;98.82
51460;BME280;37534;39.772;2.718;2022-08-03T03:59:48;101078.25;;;23.87;98.21
51460;BME280;37534;39.772;2.718;2022-08-03T04:02:13;101085.44;;;23.85;98.80
51460;BME280;37534;39.772;2.718;2022-08-03T04:04:39;101070.06;;;23.79;100.00
51460;BME280;37534;39.772;2.718;2022-08-03T04:07:24;101083.75;;;23.84;100.00
51460;BME280;37534;39.772;2.718;2022-08-03T04:10:15;101074.63;;;23.77;100.00
51460;BME280;37534;39.772;2.718;2022-08-03T04:13:02;101077.50;;;23.73;100.00
51460;BME280;37534;39.772;2.718;2022-08-03T04:15:30;101064.91;;;23.66;100.00
51460;BME280;37534;39.772;2.718;2022-08-03T04:17:58;101051.94;;;23.51;100.00
51460;BME280;37534;39.772;2.718;2022-08-03T04:20:28;101070.03;;;23.56;100.00
51460;BME280;37534;39.772;2.718;2022-08-03T04:22:55;101030.13;;;23.38;100.00
51460;BME280;37534;39.772;2.718;2022-08-03T04:25:27;101077.56;;;23.61;100.00
51460;BME280;37534;39.772;2.718;2022-08-03T04:27:54;101054.22;;;23.56;99.49
51460;BME280;37534;39.772;2.718;2022-08-03T04:30:25;101044.41;;;23.47;100.00
51460;BME280;37534;39.772;2.718;2022-08-03T04:32:52;101062.63;;;23.61;100.00
51460;BME280;37534;39.772;2.718;2022-08-03T04:35:19;101063.91;;;23.56;100.00
51460;BME280;37534;39.772;2.718;2022-08-03T04:37:47;101057.09;;;23.53;100.00
51460;BME280;37534;39.772;2.718;2022-08-03T04:40:17;101070.03;;;23.56;100.00
51460;BME280;37534;39.772;2.718;2022-08-03T04:42:45;101063.56;;;23.49;100.00
51460;BME280;37534;39.772;2.718;2022-08-03T04:45:14;101058.50;;;23.46;100.00
51460;BME280;37534;39.772;2.718;2022-08-03T04:47:41;101063.78;;;23.46;100.00
51460;BME280;37534;39.772;2.718;2022-08-03T04:50:07;101056.81;;;23.45;98.30
51460;BME280;37534;39.772;2.718;2022-08-03T04:52:34;101069.75;;;23.48;98.86
51460;BME280;37534;39.772;2.718;2022-08-03T04:54:59;101072.91;;;23.64;96.72
51460;BME280;37534;39.772;2.718;2022-08-03T04:57:25;101067.03;;;23.61;98.31
51460;BME280;37534;39.772;2.718;2022-08-03T04:59:51;101070.53;;;23.61;100.00
51460;BME280;37534;39.772;2.718;2022-08-03T05:02:21;101064.78;;;23.56;100.00
51460;BME280;37534;39.772;2.718;2022-08-03T05:04:50;101062.25;;;23.54;100.00
51460;BME280;37534;39.772;2.718;2022-08-03T05:07:17;101055.88;;;23.46;100.00
51460;BME280;37534;39.772;2.718;2022-08-03T05:09:43;101072.66;;;23.56;100.00
51460;BME280;37534;39.772;2.718;2022-08-03T05:12:09;101062.84;;;23.58;100.00
51460;BME280;37534;39.772;2.718;2022-08-03T05:14:36;101060.72;;;23.63;100.00
51460;BME280;37534;39.772;2.718;2022-08-03T05:17:06;101073.22;;;23.84;99.33
51460;BME280;37534;39.772;2.718;2022-08-03T05:19:32;101070.53;;;23.72;99.35
51460;BME280;37534;39.772;2.718;2022-08-03T05:21:58;101046.56;;;23.64;99.22
51460;BME280;37534;39.772;2.718;2022-08-03T05:24:23;101031.09;;;23.48;100.00
51460;BME280;37534;39.772;2.718;2022-08-03T05:26:49;101063.25;;;23.65;100.00
51460;BME280;37534;39.772;2.718;2022-08-03T05:29:14;101064.91;;;23.66;100.00
51460;BME280;37534;39.772;2.718;2022-08-03T05:31:40;101084.66;;;23.71;100.00
51460;BME280;37534;39.772;2.718;2022-08-03T05:34:05;101068.53;;;23.76;100.00
51460;BME280;37534;39.772;2.718;2022-08-03T05:36:31;101071.38;;;23.73;100.00
51460;BME280;37534;39.772;2.718;2022-08-03T05:38:56;101060.94;;;23.71;100.00
51460;BME280;37534;39.772;2.718;2022-08-03T05:41:22;101084.03;;;23.81;100.00
51460;BME280;37534;39.772;2.718;2022-08-03T05:43:48;101080.19;;;23.85;100.00
51460;BME280;37534;39.772;2.718;2022-08-03T05:46:14;101094.91;;;23.87;100.00
51460;BME280;37534;39.772;2.718;2022-08-03T05:48:40;101088.59;;;23.90;100.00
51460;BME280;37534;39.772;2.718;2022-08-03T05:51:08;101052.59;;;23.78;100.00
51460;BME280;37534;39.772;2.718;2022-08-03T05:53:36;101087.66;;;24.02;100.00
51460;BME280;37534;39.772;2.718;2022-08-03T05:56:02;101093.03;;;24.12;100.00
51460;BME280;37534;39.772;2.718;2022-08-03T05:58:27;101083.34;;;24.13;100.00
51460;BME280;37534;39.772;2.718;2022-08-03T06:00:53;101102.25;;;24.18;100.00
51460;BME280;37534;39.772;2.718;2022-08-03T06:03:19;101083.81;;;24.06;100.00
51460;BME280;37534;39.772;2.718;2022-08-03T06:05:44;101103.94;;;24.19;100.00
51460;BME280;37534;39.772;2.718;2022-08-03T06:08:10;101105.16;;;24.26;100.00
51460;BME280;37534;39.772;2.718;2022-08-03T06:10:36;101099.25;;;24.34;100.00
51460;BME280;37534;39.772;2.718;2022-08-03T06:13:03;101096.53;;;24.46;100.00
51460;BME280;37534;39.772;2.718;2022-08-03T06:15:29;101101.56;;;24.72;100.00
51460;BME280;37534;39.772;2.718;2022-08-03T06:17:57;101108.72;;;24.93;99.04
51460;BME280;37534;39.772;2.718;2022-08-03T06:20:23;101098.16;;;24.93;97.62
51460;BME280;37534;39.772;2.718;2022-08-03T06:22:49;101106.28;;;25.12;93.70
51460;BME280;37534;39.772;2.718;2022-08-03T06:25:14;101110.69;;;25.23;92.95
51460;BME280;37534;39.772;2.718;2022-08-03T06:27:41;101110.78;;;25.33;85.97
51460;BME280;37534;39.772;2.718;2022-08-03T06:30:08;101118.69;;;25.44;88.72
51460;BME280;37534;39.772;2.718;2022-08-03T06:32:38;101111.84;;;25.63;87.04
51460;BME280;37534;39.772;2.718;2022-08-03T06:35:08;101130.72;;;25.79;86.54
51460;BME280;37534;39.772;2.718;2022-08-03T06:37:48;101120.63;;;25.84;87.85
51460;BME280;37534;39.772;2.718;2022-08-03T06:40:16;101112.63;;;25.95;86.99
51460;BME280;37534;39.772;2.718;2022-08-03T06:42:43;101135.03;;;26.22;84.50
51460;BME280;37534;39.772;2.718;2022-08-03T06:45:09;101129.00;;;26.41;81.52
51460;BME280;37534;39.772;2.718;2022-08-03T06:47:39;101130.47;;;26.55;79.86
51460;BME280;37534;39.772;2.718;2022-08-03T06:50:05;101132.94;;;26.78;79.20
51460;BME280;37534;39.772;2.718;2022-08-03T06:52:31;101126.81;;;26.97;77.66
51460;BME280;37534;39.772;2.718;2022-08-03T06:54:57;101127.00;;;27.15;77.04
51460;BME280;37534;39.772;2.718;2022-08-03T06:57:26;101137.50;;;27.36;76.85
51460;BME280;37534;39.772;2.718;2022-08-03T06:59:51;101120.91;;;27.43;75.52
51460;BME280;37534;39.772;2.718;2022-08-03T07:02:17;101136.22;;;27.69;73.68
51460;BME280;37534;39.772;2.718;2022-08-03T07:04:43;101135.22;;;27.90;72.98
51460;BME280;37534;39.772;2.718;2022-08-03T07:07:09;101135.50;;;28.06;69.38
51460;BME280;37534;39.772;2.718;2022-08-03T07:09:35;101141.72;;;28.24;67.74
51460;BME280;37534;39.772;2.718;2022-08-03T07:12:00;101133.28;;;28.39;64.46
51460;BME280;37534;39.772;2.718;2022-08-03T07:14:26;101148.59;;;28.55;64.92
51460;BME280;37534;39.772;2.718;2022-08-03T07:16:52;101151.47;;;28.71;65.67
51460;BME280;37534;39.772;2.718;2022-08-03T07:19:18;101160.31;;;28.90;64.79
51460;BME280;37534;39.772;2.718;2022-08-03T07:21:43;101146.38;;;29.06;64.27
51460;BME280;37534;39.772;2.718;2022-08-03T07:24:10;101146.88;;;29.19;60.61
51460;BME280;37534;39.772;2.718;2022-08-03T07:26:35;101165.53;;;29.45;58.57
51460;BME280;37534;39.772;2.718;2022-08-03T07:29:01;101165.53;;;29.63;57.82
51460;BME280;37534;39.772;2.718;2022-08-03T07:31:26;101162.50;;;29.76;58.75
51460;BME280;37534;39.772;2.718;2022-08-03T07:33:52;101169.78;;;29.92;58.27
51460;BME280;37534;39.772;2.718;2022-08-03T07:36:18;101164.88;;;30.05;57.34
51460;BME280;37534;39.772;2.718;2022-08-03T07:38:43;101171.28;;;30.21;55.79
51460;BME280;37534;39.772;2.718;2022-08-03T07:41:10;101166.00;;;30.29;55.13
51460;BME280;37534;39.772;2.718;2022-08-03T07:43:35;101178.75;;;30.43;55.03
51460;BME280;37534;39.772;2.718;2022-08-03T07:46:01;101178.13;;;30.49;53.66
51460;BME280;37534;39.772;2.718;2022-08-03T07:48:26;101177.81;;;30.61;53.47
51460;BME280;37534;39.772;2.718;2022-08-03T07:50:52;101165.03;;;30.64;52.22
51460;BME280;37534;39.772;2.718;2022-08-03T07:53:17;101177.91;;;30.85;53.13
51460;BME280;37534;39.772;2.718;2022-08-03T07:55:43;101175.50;;;31.00;52.07
51460;BME280;37534;39.772;2.718;2022-08-03T07:58:10;101161.03;;;31.11;49.53
51460;BME280;37534;39.772;2.718;2022-08-03T08:00:40;101165.72;;;31.25;49.19
51460;BME280;37534;39.772;2.718;2022-08-03T08:03:06;101171.88;;;31.42;48.11
51460;BME280;37534;39.772;2.718;2022-08-03T08:05:32;101171.94;;;31.51;48.10
51460;BME280;37534;39.772;2.718;2022-08-03T08:07:58;101177.59;;;31.64;47.50
51460;BME280;37534;39.772;2.718;2022-08-03T08:10:24;101168.78;;;31.72;46.10
51460;BME280;37534;39.772;2.718;2022-08-03T08:12:50;101164.75;;;31.84;46.06
51460;BME280;37534;39.772;2.718;2022-08-03T08:15:15;101170.41;;;32.06;43.32
51460;BME280;37534;39.772;2.718;2022-08-03T08:17:48;101175.06;;;32.12;44.98
51460;BME280;37534;39.772;2.718;2022-08-03T08:20:17;101167.03;;;32.20;44.02
51460;BME280;37534;39.772;2.718;2022-08-03T08:22:43;101173.53;;;32.34;44.38
51460;BME280;37534;39.772;2.718;2022-08-03T08:25:09;101170.97;;;32.40;45.54
51460;BME280;37534;39.772;2.718;2022-08-03T08:27:46;101172.94;;;32.55;45.59
51460;BME280;37534;39.772;2.718;2022-08-03T08:30:13;101177.09;;;32.57;46.88
51460;BME280;37534;39.772;2.718;2022-08-03T08:32:39;101175.25;;;32.58;49.42
51460;BME280;37534;39.772;2.718;2022-08-03T08:35:06;101177.59;;;32.53;50.87
51460;BME280;37534;39.772;2.718;2022-08-03T08:37:32;101140.84;;;32.24;49.44
51460;BME280;37534;39.772;2.718;2022-08-03T08:39:58;101175.81;;;32.45;46.66
51460;BME280;37534;39.772;2.718;2022-08-03T08:42:24;101137.66;;;32.28;42.81
51460;BME280;37534;39.772;2.718;2022-08-03T08:44:50;101174.94;;;32.53;43.94
51460;BME280;37534;39.772;2.718;2022-08-03T08:47:23;101181.97;;;32.62;44.15
51460;BME280;37534;39.772;2.718;2022-08-03T08:49:52;101178.91;;;32.73;43.82
51460;BME280;37534;39.772;2.718;2022-08-03T08:52:24;101160.84;;;32.75;42.67
51460;BME280;37534;39.772;2.718;2022-08-03T08:54:51;101152.66;;;32.77;40.72
51460;BME280;37534;39.772;2.718;2022-08-03T08:57:20;101187.03;;;33.11;40.05
51460;BME280;37534;39.772;2.718;2022-08-03T08:59:46;101153.03;;;32.97;39.78
51460;BME280;37534;39.772;2.718;2022-08-03T09:02:12;101182.19;;;33.15;39.38
51460;BME280;37534;39.772;2.718;2022-08-03T09:04:38;101157.63;;;33.11;39.51
51460;BME280;37534;39.772;2.718;2022-08-03T09:07:04;101167.69;;;33.32;38.75
51460;BME280;37534;39.772;2.718;2022-08-03T09:09:30;101172.09;;;33.48;38.11
51460;BME280;37534;39.772;2.718;2022-08-03T09:11:56;101145.47;;;33.32;37.43
51460;BME280;37534;39.772;2.718;2022-08-03T09:14:21;101159.75;;;33.47;37.53
51460;BME280;37534;39.772;2.718;2022-08-03T09:17:01;101175.97;;;33.69;36.12
51460;BME280;37534;39.772;2.718;2022-08-03T09:19:32;101184.00;;;33.69;37.57
51460;BME280;37534;39.772;2.718;2022-08-03T09:22:16;101148.38;;;33.45;38.86
51460;BME280;37534;39.772;2.718;2022-08-03T09:25:00;101160.25;;;33.66;38.80
51460;BME280;37534;39.772;2.718;2022-08-03T09:27:27;101147.72;;;33.66;38.79
51460;BME280;37534;39.772;2.718;2022-08-03T09:29:53;101175.88;;;33.77;39.23
51460;BME280;37534;39.772;2.718;2022-08-03T09:32:20;101136.00;;;33.67;39.51
51460;BME280;37534;39.772;2.718;2022-08-03T09:34:50;101176.75;;;34.07;39.92
51460;BME280;37534;39.772;2.718;2022-08-03T09:37:18;101189.22;;;34.15;39.33
51460;BME280;37534;39.772;2.718;2022-08-03T09:39:45;101171.81;;;34.19;37.89
51460;BME280;37534;39.772;2.718;2022-08-03T09:42:15;101173.47;;;34.20;37.57
51460;BME280;37534;39.772;2.718;2022-08-03T09:44:48;101171.94;;;34.18;37.15
51460;BME280;37534;39.772;2.718;2022-08-03T09:47:28;101170.50;;;34.30;37.61
51460;BME280;37534;39.772;2.718;2022-08-03T09:50:02;101160.81;;;34.44;35.81
51460;BME280;37534;39.772;2.718;2022-08-03T09:52:31;101169.94;;;34.64;35.32
51460;BME280;37534;39.772;2.718;2022-08-03T09:54:58;101164.28;;;34.74;34.95
51460;BME280;37534;39.772;2.718;2022-08-03T09:57:26;101164.81;;;34.84;33.88
51460;BME280;37534;39.772;2.718;2022-08-03T09:59:53;101152.78;;;34.95;33.13
51460;BME280;37534;39.772;2.718;2022-08-03T10:02:25;101162.88;;;35.15;34.50
51460;BME280;37534;39.772;2.718;2022-08-03T10:04:51;101152.25;;;35.07;33.05
51460;BME280;37534;39.772;2.718;2022-08-03T10:07:18;101141.53;;;35.28;34.41
51460;BME280;37534;39.772;2.718;2022-08-03T10:09:53;101121.84;;;35.42;34.18
51460;BME280;37534;39.772;2.718;2022-08-03T10:12:19;101134.50;;;35.70;33.74
51460;BME280;37534;39.772;2.718;2022-08-03T10:14:46;101140.22;;;35.95;33.41
51460;BME280;37534;39.772;2.718;2022-08-03T10:17:11;101140.47;;;36.01;31.95
51460;BME280;37534;39.772;2.718;2022-08-03T10:19:38;101143.25;;;36.14;31.55
51460;BME280;37534;39.772;2.718;2022-08-03T10:22:09;101141.88;;;36.25;31.11
51460;BME280;37534;39.772;2.718;2022-08-03T10:24:38;101138.84;;;36.06;30.51
51460;BME280;37534;39.772;2.718;2022-08-03T10:27:07;101127.41;;;35.91;30.89
51460;BME280;37534;39.772;2.718;2022-08-03T10:29:44;101125.50;;;35.85;31.30
51460;BME280;37534;39.772;2.718;2022-08-03T10:32:17;101138.72;;;35.86;31.11
51460;BME280;37534;39.772;2.718;2022-08-03T10:34:43;101126.75;;;35.89;31.04
51460;BME280;37534;39.772;2.718;2022-08-03T10:37:11;101144.91;;;35.87;30.72
51460;BME280;37534;39.772;2.718;2022-08-03T10:39:43;101146.47;;;35.74;32.40
51460;BME280;37534;39.772;2.718;2022-08-03T10:42:22;101153.34;;;35.77;33.10
51460;BME280;37534;39.772;2.718;2022-08-03T10:45:01;101150.50;;;35.64;32.75
51460;BME280;37534;39.772;2.718;2022-08-03T10:47:28;101157.22;;;35.74;32.10
51460;BME280;37534;39.772;2.718;2022-08-03T10:49:54;101154.78;;;35.79;32.45
51460;BME280;37534;39.772;2.718;2022-08-03T10:52:20;101161.00;;;35.80;32.20
51460;BME280;37534;39.772;2.718;2022-08-03T10:54:46;101164.78;;;35.92;32.65
51460;BME280;37534;39.772;2.718;2022-08-03T11:00:17;101162.50;;;36.24;33.12
51460;BME280;37534;39.772;2.718;2022-08-03T11:03:02;101160.91;;;36.37;31.52
51460;BME280;37534;39.772;2.718;2022-08-03T11:05:30;101161.38;;;36.47;31.05
51460;BME280;37534;39.772;2.718;2022-08-03T11:08:24;101149.06;;;36.66;31.17
51460;BME280;37534;39.772;2.718;2022-08-03T11:10:52;101143.88;;;36.64;29.66
51460;BME280;37534;39.772;2.718;2022-08-03T11:13:21;101152.41;;;36.68;29.35
51460;BME280;37534;39.772;2.718;2022-08-03T11:15:49;101137.13;;;36.75;29.55
51460;BME280;37534;39.772;2.718;2022-08-03T11:18:15;101148.53;;;36.90;29.95
51460;BME280;37534;39.772;2.718;2022-08-03T11:20:49;101141.09;;;37.06;30.33
51460;BME280;37534;39.772;2.718;2022-08-03T11:23:59;101144.66;;;37.26;29.29
51460;BME280;37534;39.772;2.718;2022-08-03T11:28:38;101122.31;;;37.39;27.44
51460;BME280;37534;39.772;2.718;2022-08-03T11:34:14;101122.94;;;37.68;26.82
51460;BME280;37534;39.772;2.718;2022-08-03T11:39:46;101132.47;;;37.77;27.21
51460;BME280;37534;39.772;2.718;2022-08-03T11:44:51;101117.53;;;37.61;27.14
51460;BME280;37534;39.772;2.718;2022-08-03T11:47:21;101110.28;;;37.75;27.85
51460;BME280;37534;39.772;2.718;2022-08-03T11:49:50;101124.94;;;37.99;27.20
51460;BME280;37534;39.772;2.718;2022-08-03T11:52:16;101131.94;;;38.07;27.49
51460;BME280;37534;39.772;2.718;2022-08-03T11:54:43;101117.06;;;37.98;27.86
51460;BME280;37534;39.772;2.718;2022-08-03T11:57:09;101108.34;;;38.02;27.82
51460;BME280;37534;39.772;2.718;2022-08-03T11:59:36;101099.44;;;38.02;27.34
51460;BME280;37534;39.772;2.718;2022-08-03T12:02:09;101087.03;;;37.94;27.24
51460;BME280;37534;39.772;2.718;2022-08-03T12:04:56;101124.31;;;38.04;27.71
51460;BME280;37534;39.772;2.718;2022-08-03T12:07:27;101120.97;;;38.02;27.33
51460;BME280;37534;39.772;2.718;2022-08-03T12:10:12;101130.97;;;37.88;28.79
51460;BME280;37534;39.772;2.718;2022-08-03T12:12:40;101119.97;;;37.96;28.36
51460;BME280;37534;39.772;2.718;2022-08-03T12:15:07;101125.97;;;37.98;29.14
51460;BME280;37534;39.772;2.718;2022-08-03T12:17:39;101120.81;;;37.90;29.62
51460;BME280;37534;39.772;2.718;2022-08-03T12:20:08;101122.72;;;37.70;29.55
51460;BME280;37534;39.772;2.718;2022-08-03T12:22:36;101126.88;;;37.72;29.50
51460;BME280;37534;39.772;2.718;2022-08-03T12:25:20;101126.03;;;37.72;29.21
51460;BME280;37534;39.772;2.718;2022-08-03T12:27:46;101119.81;;;37.58;29.97
51460;BME280;37534;39.772;2.718;2022-08-03T12:30:11;101114.03;;;37.67;31.11
51460;BME280;37534;39.772;2.718;2022-08-03T12:32:37;101111.34;;;37.67;31.50
51460;BME280;37534;39.772;2.718;2022-08-03T12:35:03;101116.09;;;37.72;33.05
51460;BME280;37534;39.772;2.718;2022-08-03T12:37:30;101118.56;;;37.60;32.84
51460;BME280;37534;39.772;2.718;2022-08-03T12:39:58;101114.66;;;37.29;35.51
51460;BME280;37534;39.772;2.718;2022-08-03T12:42:32;101129.31;;;37.14;37.23
51460;BME280;37534;39.772;2.718;2022-08-03T12:44:57;101123.47;;;36.77;40.69
51460;BME280;37534;39.772;2.718;2022-08-03T12:47:23;101118.91;;;36.77;39.46
51460;BME280;37534;39.772;2.718;2022-08-03T12:49:52;101118.72;;;36.79;39.06
51460;BME280;37534;39.772;2.718;2022-08-03T12:52:20;101123.91;;;36.87;41.19
51460;BME280;37534;39.772;2.718;2022-08-03T12:54:59;101124.28;;;36.77;39.72
51460;BME280;37534;39.772;2.718;2022-08-03T12:57:39;101108.47;;;36.47;40.83
51460;BME280;37534;39.772;2.718;2022-08-03T13:00:14;101114.88;;;36.46;41.88
51460;BME280;37534;39.772;2.718;2022-08-03T13:02:39;101114.72;;;36.61;41.13
51460;BME280;37534;39.772;2.718;2022-08-03T13:05:23;101126.75;;;36.72;40.33
51460;BME280;37534;39.772;2.718;2022-08-03T13:07:49;101125.97;;;36.78;40.56
51460;BME280;37534;39.772;2.718;2022-08-03T13:10:30;101106.94;;;36.73;40.89
51460;BME280;37534;39.772;2.718;2022-08-03T13:12:57;101117.50;;;36.81;40.94
51460;BME280;37534;39.772;2.718;2022-08-03T13:15:27;101110.22;;;36.75;39.39
51460;BME280;37534;39.772;2.718;2022-08-03T13:17:54;101109.31;;;36.48;41.09
51460;BME280;37534;39.772;2.718;2022-08-03T13:20:21;101118.25;;;36.62;40.62